Latest Weather Observations for Port Lincoln Airport

IDS60801

Issued at 8:31 pm CDT Sunday 21 December 2014 (issued every 30 minutes, with the page automatically refreshed every 10 minutes)

About weather observations | Map of weather stations | Latest weather observations for SA | Other Formats
Station Details ID: 018192 Name: PORT LINCOLN AWS Lat: -34.60 Lon: 135.88 Height: 8.5 m
Data from the previous 72 hours. | See also: Recent months at Port Lincoln Airport
Date/Time
CDT
Temp
°C
App
Temp
°C
Dew
Point
Rel
Hum
%
Delta-T
°C
Wind Press
QNH
hPa
Press
MSL
hPa
Rain
since 9 am
mm
Dir
 
Spd
km/h
Gust
km/h
Spd
kts
Gust
kts
21/08:30pm 18.8 15.6 17.3 91 0.9 S 30 35 16 19 1011.5 1011.5 0.6
21/08:00pm 20.4 20.2 17.6 84 1.7 S 15 20 8 11 1011.6 1011.6 0.0
21/07:30pm 21.4 22.4 16.4 73 3.0 E 6 9 3 5 1011.3 1011.3 0.0
21/07:00pm 21.2 20.9 16.4 74 2.9 SSW 13 17 7 9 1010.3 1010.3 0.0
21/06:30pm 21.4 21.8 16.4 73 3.0 S 9 11 5 6 1010.3 1010.3 0.0
21/06:00pm 21.8 20.5 15.9 69 3.5 SE 17 20 9 11 1010.1 1010.1 0.0
21/05:30pm 22.6 20.3 15.7 65 4.2 SE 22 30 12 16 1009.6 1009.6 0.0
21/05:00pm 22.4 19.3 15.7 66 4.0 SE 26 33 14 18 1009.6 1009.6 0.0
21/04:30pm 23.2 20.8 16.3 65 4.2 SSE 24 32 13 17 1009.8 1009.8 0.0
21/04:00pm 24.4 23.0 16.9 63 4.6 SSE 20 26 11 14 1009.9 1009.9 0.0
21/03:30pm 25.0 22.3 15.6 56 5.7 SSE 24 30 13 16 1010.1 1010.1 0.0
21/03:00pm 25.9 24.3 15.9 54 6.1 S 19 26 10 14 1010.1 1010.1 0.0
21/02:30pm 24.5 22.6 15.7 58 5.3 SSE 20 28 11 15 1009.8 1009.8 0.0
21/02:00pm 23.9 22.1 15.9 61 4.8 SE 20 30 11 16 1010.4 1010.4 0.0
21/01:30pm 24.4 19.9 13.9 52 6.2 SE 30 35 16 19 1010.7 1010.7 0.0
21/01:00pm 24.4 21.1 15.1 56 5.6 SE 26 32 14 17 1011.1 1011.1 0.0
21/12:30pm 23.0 19.2 14.8 60 4.9 SE 28 33 15 18 1011.3 1011.3 0.0
21/12:00pm 23.0 19.6 15.8 64 4.3 SE 28 35 15 19 1011.4 1011.4 0.0
21/11:30am 22.1 18.7 16.8 72 3.2 SE 30 33 16 18 1011.4 1011.4 0.0
21/11:00am 23.3 22.0 16.8 67 4.0 SE 19 24 10 13 1011.5 1011.5 0.0
21/10:30am 22.8 22.1 17.3 71 3.4 SE 17 20 9 11 1011.2 1011.2 0.0
21/10:00am 22.9 21.9 17.6 72 3.3 SE 19 24 10 13 1011.0 1011.0 0.0
21/09:30am 21.9 21.2 18.3 80 2.3 SSE 19 22 10 12 1011.2 1011.2 0.0
21/09:00am 21.9 22.6 17.9 78 2.5 SE 11 15 6 8 1011.0 1011.0 0.0
21/08:30am 21.5 22.6 17.9 80 2.2 E 9 13 5 7 1010.7 1010.7 0.0
21/08:00am 20.5 22.1 17.9 85 1.6 ENE 6 9 3 5 1010.5 1010.5 0.0
21/07:30am 18.4 19.9 17.6 95 0.5 NW 6 7 3 4 1010.4 1010.4 0.0
21/07:00am 16.2 16.8 15.9 98 0.2 WNW 7 9 4 5 1010.1 1010.1 0.0
21/06:48am 15.0 15.1 14.5 97 0.3 WNW 7 9 4 5 1010.0 1010.0 0.0
21/06:30am 14.4 15.6 13.9 97 0.3 CALM 0 0 0 0 1009.9 1009.9 0.0
21/06:21am 14.7 15.7 14.2 97 0.3 N 2 6 1 3 1009.9 1009.9 0.0
21/06:00am 15.1 15.5 14.8 98 0.2 NNW 6 9 3 5 1010.0 1010.0 0.0
21/05:30am 14.1 13.9 13.5 96 0.3 NW 7 9 4 5 1009.9 1009.9 0.0
21/05:00am 16.1 17.9 15.5 96 0.3 CALM 0 11 0 6 1009.7 1009.7 0.0
21/04:30am 15.5 15.8 14.9 96 0.3 N 7 11 4 6 1010.0 1010.0 0.0
21/04:00am 15.0 15.3 14.4 96 0.3 N 6 7 3 4 1010.3 1010.3 0.0
21/03:30am 13.1 12.6 12.0 93 0.6 N 6 7 3 4 1010.7 1010.7 0.0
21/03:00am 15.2 15.2 14.1 93 0.6 ENE 7 13 4 7 1010.8 1010.8 0.0
21/02:30am 15.4 15.6 14.1 92 0.7 E 6 9 3 5 1011.3 1011.3 0.0
21/02:00am 16.0 15.7 14.5 91 0.9 ESE 9 13 5 7 1011.9 1011.9 0.0
21/01:30am 15.7 15.8 14.4 92 0.7 SSE 7 9 4 5 1012.2 1012.2 0.0
21/01:00am 16.5 16.2 14.5 88 1.1 E 9 11 5 6 1012.8 1012.8 0.0
21/12:30am 17.4 17.7 15.0 86 1.4 ESE 7 11 4 6 1013.2 1013.2 0.0
21/12:00am 18.4 17.9 16.0 86 1.4 E 13 20 7 11 1013.1 1013.1 0.0
 
Date/Time
CDT
Temp
°C
App
Temp
°C
Dew
Point
Rel
Hum
%
Delta-T
°C
Wind Press
QNH
hPa
Press
MSL
hPa
Rain
since 9 am
mm
Dir
 
Spd
km/h
Gust
km/h
Spd
kts
Gust
kts
20/11:30pm 17.2 17.4 14.8 86 1.4 SE 7 9 4 5 1012.9 1012.9 0.0
20/11:00pm 16.5 16.5 14.2 86 1.3 ESE 7 9 4 5 1013.1 1013.1 0.0
20/10:30pm 16.5 16.1 14.0 85 1.4 ESE 9 11 5 6 1013.3 1013.3 0.0
20/10:00pm 16.8 16.3 13.9 83 1.6 ESE 9 11 5 6 1013.2 1013.2 0.0
20/09:30pm 17.8 16.4 14.5 81 1.9 SE 15 19 8 10 1013.5 1013.5 0.0
20/09:00pm 18.1 16.2 14.2 78 2.2 SE 17 19 9 10 1013.7 1013.7 0.0
20/08:30pm 19.0 16.8 14.3 74 2.7 SE 19 20 10 11 1013.7 1013.7 0.0
20/08:00pm 20.0 17.6 13.9 68 3.5 SE 19 22 10 12 1013.8 1013.8 0.0
20/07:30pm 20.7 18.4 14.1 66 3.8 SE 19 22 10 12 1013.9 1013.9 0.0
20/07:00pm 21.1 18.2 13.0 60 4.6 SE 20 24 11 13 1013.9 1013.9 0.0
20/06:30pm 21.8 18.9 12.9 57 5.1 SE 20 28 11 15 1013.9 1013.9 0.0
20/06:00pm 21.8 18.8 14.7 64 4.2 SE 24 28 13 15 1013.8 1013.8 0.0
20/05:30pm 21.6 17.8 13.5 60 4.7 SE 26 32 14 17 1013.8 1013.8 0.0
20/05:00pm 23.0 19.7 14.0 57 5.3 SE 24 32 13 17 1014.2 1014.2 0.0
20/04:30pm 22.2 19.2 12.7 55 5.4 SE 20 30 11 16 1014.7 1014.7 0.0
20/04:00pm 22.0 19.1 12.8 56 5.2 E 20 30 11 16 1015.1 1015.1 0.0
20/03:30pm 21.7 19.0 13.6 60 4.7 E 20 28 11 15 1015.5 1015.5 0.0
20/03:00pm 22.3 19.6 13.4 57 5.1 E 20 28 11 15 1015.9 1015.9 0.0
20/02:30pm 23.3 20.3 12.6 51 6.1 E 20 28 11 15 1016.5 1016.5 0.0
20/02:00pm 22.7 18.6 10.2 45 6.8 E 22 30 12 16 1016.9 1016.9 0.0
20/01:30pm 21.0 17.9 13.4 62 4.4 E 22 30 12 16 1017.5 1017.5 0.0
20/01:00pm 20.8 18.1 13.5 63 4.2 E 20 30 11 16 1017.7 1017.7 0.0
20/12:30pm 21.3 18.7 13.7 62 4.4 E 20 30 11 16 1018.0 1018.0 0.0
20/12:00pm 20.3 17.6 12.8 62 4.2 E 19 26 10 14 1018.4 1018.4 0.0
20/11:30am 20.3 17.4 12.8 62 4.2 E 20 28 11 15 1018.6 1018.6 0.0
20/11:00am 20.4 17.7 12.9 62 4.3 ENE 19 28 10 15 1018.8 1018.8 0.0
20/10:30am 20.4 17.8 13.1 63 4.1 ENE 19 24 10 13 1019.0 1019.0 0.0
20/10:00am 20.1 17.4 12.8 63 4.1 E 19 26 10 14 1019.1 1019.1 0.0
20/09:30am 19.7 17.4 12.9 65 3.8 ENE 17 28 9 15 1019.5 1019.5 0.0
20/09:00am 20.2 17.6 13.2 64 4.0 E 19 26 10 14 1019.3 1019.3 0.0
20/08:30am 19.1 16.1 12.6 66 3.6 E 20 26 11 14 1019.2 1019.2 0.0
20/08:00am 18.6 15.8 12.6 68 3.4 ENE 19 24 10 13 1019.1 1019.1 0.0
20/07:30am 18.0 16.5 13.1 73 2.7 ENE 13 17 7 9 1019.0 1019.0 0.0
20/07:00am 17.3 15.3 12.8 75 2.5 ENE 15 20 8 11 1018.9 1018.9 0.0
20/06:30am 16.5 14.8 12.5 77 2.2 ENE 13 19 7 10 1018.6 1018.6 0.0
20/06:00am 16.7 14.3 12.7 77 2.2 E 17 20 9 11 1018.5 1018.5 0.0
20/05:30am 16.7 14.3 12.5 76 2.3 E 17 24 9 13 1018.4 1018.4 0.0
20/05:00am 16.6 14.5 12.4 76 2.3 ENE 15 19 8 10 1018.7 1018.7 0.0
20/04:30am 16.8 14.7 12.3 75 2.5 ENE 15 20 8 11 1018.6 1018.6 0.0
20/04:00am 16.8 14.0 12.5 76 2.4 E 19 24 10 13 1018.5 1018.5 0.0
20/03:30am 16.8 13.8 12.1 74 2.6 E 19 22 10 12 1018.4 1018.4 0.0
20/03:00am 16.9 14.0 12.4 75 2.5 E 19 24 10 13 1018.6 1018.6 0.0
20/02:30am 15.6 13.5 12.4 81 1.7 ESE 15 19 8 10 1018.7 1018.7 0.0
20/02:00am 15.6 12.6 12.0 79 2.0 ESE 19 22 10 12 1019.0 1019.0 0.0
20/01:30am 15.6 12.6 11.8 78 2.1 ESE 19 22 10 12 1019.5 1019.5 0.0
20/01:00am 15.6 12.3 11.6 77 2.2 SE 20 26 11 14 1019.9 1019.9 0.0
20/12:30am 15.5 12.4 11.7 78 2.0 SE 19 26 10 14 1020.3 1020.3 0.0
20/12:00am 15.4 12.6 11.4 77 2.1 SE 17 22 9 12 1020.7 1020.7 0.0
 
Date/Time
CDT
Temp
°C
App
Temp
°C
Dew
Point
Rel
Hum
%
Delta-T
°C
Wind Press
QNH
hPa
Press
MSL
hPa
Rain
since 9 am
mm
Dir
 
Spd
km/h
Gust
km/h
Spd
kts
Gust
kts
19/11:30pm 15.9 12.6 11.5 75 2.4 SSE 20 26 11 14 1021.0 1021.0 0.0
19/11:00pm 15.7 11.9 11.1 74 2.5 SSE 22 26 12 14 1021.2 1021.2 0.0
19/10:30pm 15.9 12.4 10.9 72 2.7 SSE 20 26 11 14 1021.1 1021.1 0.0
19/10:00pm 16.1 11.8 10.8 71 2.8 SSE 24 30 13 16 1021.1 1021.1 0.0
19/09:30pm 16.2 12.3 10.7 70 2.9 SSE 22 30 12 16 1021.1 1021.1 0.0
19/09:00pm 16.6 13.0 10.5 67 3.2 S 20 26 11 14 1020.9 1020.9 0.0
19/08:30pm 17.1 13.0 10.2 64 3.6 S 22 26 12 14 1020.8 1020.8 0.0
19/08:00pm 17.9 13.5 10.3 61 4.1 S 24 30 13 16 1020.7 1020.7 0.0
19/07:30pm 18.5 13.6 9.8 57 4.6 S 26 33 14 18 1020.7 1020.7 0.0
19/07:00pm 19.3 14.0 9.8 54 5.1 S 28 33 15 18 1020.5 1020.5 0.0
19/06:30pm 20.1 15.1 9.7 51 5.5 S 26 32 14 17 1020.4 1020.4 0.0
19/06:00pm 20.8 16.2 9.7 49 5.9 S 24 32 13 17 1020.3 1020.3 0.0
19/05:30pm 21.3 16.7 11.1 52 5.6 SE 26 32 14 17 1020.2 1020.2 0.0
19/05:00pm 20.5 15.7 10.3 52 5.5 SE 26 32 14 17 1020.4 1020.4 0.0
19/04:30pm 20.7 16.2 10.2 51 5.7 SE 24 33 13 18 1020.6 1020.6 0.0
19/04:00pm 20.6 16.5 10.1 51 5.7 SE 22 35 12 19 1020.7 1020.7 0.0
19/03:30pm 21.3 16.9 10.5 50 5.9 SE 24 32 13 17 1020.9 1020.9 0.0
19/03:00pm 20.2 16.0 9.7 51 5.6 SE 22 33 12 18 1021.2 1021.2 0.0
19/02:30pm 21.3 17.9 11.1 52 5.6 SE 20 30 11 16 1021.3 1021.3 0.0
19/02:00pm 20.3 16.4 9.5 50 5.8 SE 20 28 11 15 1021.4 1021.4 0.0
19/01:30pm 20.5 16.7 9.1 48 6.0 SE 19 30 10 16 1021.5 1021.5 0.0
19/01:00pm 21.3 17.5 9.2 46 6.4 SE 19 28 10 15 1021.5 1021.5 0.0
19/12:30pm 21.1 17.2 8.7 45 6.5 SE 19 26 10 14 1021.7 1021.7 0.0
19/12:00pm 20.3 16.0 8.0 45 6.3 SE 20 26 11 14 1021.7 1021.7 0.0
19/11:30am 20.2 16.4 7.6 44 6.4 SSE 17 22 9 12 1021.8 1021.8 0.0
19/11:00am 19.8 16.2 6.9 43 6.5 SE 15 26 8 14 1021.8 1021.8 0.0
19/10:30am 19.1 15.3 7.5 47 5.9 SE 17 22 9 12 1021.7 1021.7 0.0
19/10:00am 19.0 16.0 7.8 48 5.7 SE 13 20 7 11 1021.8 1021.8 0.0
19/09:30am 18.6 16.1 8.0 50 5.4 SE 11 20 6 11 1021.6 1021.6 0.0
19/09:00am 17.1 14.6 8.0 55 4.6 S 11 15 6 8 1021.4 1021.4 0.0
19/08:30am 16.8 14.1 8.8 59 4.1 SSW 13 15 7 8 1021.2 1021.2 0.0
19/08:00am 17.6 14.2 9.2 58 4.4 S 17 20 9 11 1020.6 1020.6 0.0
19/07:30am 16.0 14.5 9.2 64 3.5 NW 7 11 4 6 1020.3 1020.3 0.0
19/07:00am 12.0 11.3 8.7 80 1.6 NNW 2 7 1 4 1019.9 1019.9 0.0
19/06:30am 10.7 8.9 7.8 82 1.4 WNW 7 9 4 5 1019.4 1019.4 0.0
19/06:00am 11.0 9.3 7.7 80 1.6 WNW 6 7 3 4 1019.1 1019.1 0.0
19/05:30am 10.7 8.0 7.2 79 1.7 SW 11 13 6 7 1018.8 1018.8 0.0
19/05:00am 11.4 8.7 7.3 76 2.0 SW 11 13 6 7 1018.8 1018.8 0.0
19/04:30am 12.0 9.3 7.5 74 2.2 SW 11 13 6 7 1018.7 1018.7 0.0
19/04:00am 12.1 9.0 7.4 73 2.3 SW 13 15 7 8 1018.9 1018.9 0.0
19/03:30am 12.0 9.3 7.3 73 2.3 SW 11 13 6 7 1018.8 1018.8 0.0
19/03:00am 12.2 9.1 7.1 71 2.4 SW 13 15 7 8 1018.9 1018.9 0.0
19/02:30am 12.5 9.8 7.4 71 2.5 SW 11 15 6 8 1019.0 1019.0 0.0
19/02:00am 12.5 9.9 7.6 72 2.4 SW 11 15 6 8 1019.1 1019.1 0.0
19/01:30am 12.3 9.9 7.2 71 2.5 SW 9 13 5 7 1019.4 1019.4 0.0
19/01:00am 12.6 9.8 7.1 69 2.7 SW 11 15 6 8 1019.3 1019.3 0.0
19/12:30am 12.9 9.8 7.4 69 2.7 SW 13 15 7 8 1019.3 1019.3 0.0
19/12:00am 13.2 10.2 7.6 69 2.7 SW 13 17 7 9 1019.2 1019.2 0.0
 
Date/Time
CDT
Temp
°C
App
Temp
°C
Dew
Point
Rel
Hum
%
Delta-T
°C
Wind Press
QNH
hPa
Press
MSL
hPa
Rain
since 9 am
mm
Dir
 
Spd
km/h
Gust
km/h
Spd
kts
Gust
kts
18/11:30pm 14.2 10.9 8.2 67 3.0 SW 15 20 8 11 1019.2 1019.2 0.0
18/11:00pm 15.0 11.1 8.7 66 3.2 SSW 19 24 10 13 1019.1 1019.1 0.0
18/10:30pm 15.4 11.7 9.3 67 3.1 SSW 19 22 10 12 1018.8 1018.8 0.0
18/10:00pm 15.4 12.5 9.5 68 3.0 SW 15 20 8 11 1018.6 1018.6 0.0
18/09:30pm 15.9 12.2 9.6 66 3.3 SSW 19 26 10 14 1018.2 1018.2 0.0
18/09:00pm 16.8 13.2 10.0 64 3.6 SSW 19 22 10 12 1018.0 1018.0 0.0

Other Formats:

Comma delimited format used in spreadsheet applications
http://www.bom.gov.au/fwo/IDS60801/IDS60801.95661.axf

JavaScript Object Notation format (JSON) in row-major order
http://www.bom.gov.au/fwo/IDS60801/IDS60801.95661.json